createdAt,value
2017-08-30T00:00:14.509Z,25.24
2017-08-30T00:01:14.525Z,25.25
2017-08-30T00:03:09.013Z,25.24
2017-08-30T00:04:09.029Z,25.24
2017-08-30T00:06:02.498Z,25.27
2017-08-30T00:07:02.533Z,25.21
2017-08-30T00:08:57.021Z,25.25
2017-08-30T00:09:57.037Z,25.13
2017-08-30T00:11:51.795Z,25.14
2017-08-30T00:12:51.541Z,25.13
2017-08-30T00:14:45.029Z,25.25
2017-08-30T00:15:45.046Z,25.24
2017-08-30T00:17:39.518Z,25.17
2017-08-30T00:18:39.565Z,25.03
2017-08-30T00:20:34.038Z,25.14
2017-08-30T00:21:34.062Z,25.20
2017-08-30T00:23:28.558Z,25.08
2017-08-30T00:24:28.567Z,25.08
2017-08-30T00:26:23.062Z,25.10
2017-08-30T00:27:23.074Z,25.13
2017-08-30T00:29:17.526Z,25.18
2017-08-30T00:30:17.566Z,25.15
2017-08-30T00:32:12.055Z,25.17
2017-08-30T00:33:12.071Z,25.17
2017-08-30T00:35:06.542Z,25.13
2017-08-30T00:36:06.585Z,25.13
2017-08-30T00:38:01.111Z,25.08
2017-08-30T00:39:01.142Z,25.15
2017-08-30T00:40:55.607Z,25.15
2017-08-30T00:41:55.622Z,25.09
2017-08-30T00:43:50.087Z,25.15
2017-08-30T00:44:50.255Z,25.20
2017-08-30T00:46:44.615Z,25.13
2017-08-30T00:47:44.631Z,25.14
2017-08-30T00:49:39.087Z,25.08
2017-08-30T00:50:39.127Z,25.10
2017-08-30T00:52:32.607Z,25.14
2017-08-30T00:53:32.631Z,25.03
2017-08-30T00:55:27.096Z,25.09
2017-08-30T00:56:27.135Z,24.96
2017-08-30T00:58:21.631Z,24.95
2017-08-30T00:59:21.639Z,24.99
2017-08-30T01:01:15.104Z,24.96
2017-08-30T01:02:15.144Z,24.98
2017-08-30T01:04:09.650Z,24.93
2017-08-30T01:05:09.639Z,24.96
2017-08-30T01:07:04.111Z,24.88
2017-08-30T01:08:04.144Z,24.81
2017-08-30T01:09:58.640Z,24.81
2017-08-30T01:10:58.656Z,24.80
2017-08-30T01:12:52.128Z,24.77
2017-08-30T01:13:52.176Z,24.81
2017-08-30T01:15:46.656Z,24.84
2017-08-30T01:16:46.704Z,24.80
2017-08-30T01:18:41.136Z,24.83
2017-08-30T01:19:41.176Z,24.80
2017-08-30T01:21:35.704Z,24.80
2017-08-30T01:22:35.687Z,24.84
2017-08-30T01:24:30.161Z,24.80
2017-08-30T01:25:30.185Z,24.83
2017-08-30T01:27:24.634Z,24.90
2017-08-30T01:28:24.690Z,24.98
2017-08-30T01:30:18.227Z,25.00
2017-08-30T01:31:18.196Z,24.95
2017-08-30T01:33:12.651Z,25.05
2017-08-30T01:34:12.691Z,24.98
2017-08-30T01:36:07.188Z,24.99
2017-08-30T01:37:07.195Z,24.98
2017-08-30T01:39:01.651Z,25.03
2017-08-30T01:40:01.699Z,25.00
2017-08-30T01:41:56.163Z,24.98
2017-08-30T01:42:56.197Z,24.98
2017-08-30T01:44:50.669Z,25.02
2017-08-30T01:45:50.699Z,24.96
2017-08-30T01:47:45.180Z,25.02
2017-08-30T01:48:45.206Z,24.99
2017-08-30T01:50:39.659Z,25.05
2017-08-30T01:51:39.708Z,25.06
2017-08-30T01:53:34.195Z,24.98
2017-08-30T01:54:34.211Z,25.09
2017-08-30T01:56:28.739Z,25.09
2017-08-30T01:57:28.716Z,25.09
2017-08-30T01:59:23.204Z,25.09
2017-08-30T02:00:23.211Z,25.06
2017-08-30T02:02:17.692Z,25.14
2017-08-30T02:03:17.716Z,25.09
2017-08-30T02:05:12.212Z,25.09
2017-08-30T02:06:12.236Z,25.15
2017-08-30T02:08:05.732Z,25.17
2017-08-30T02:09:05.780Z,25.13
2017-08-30T02:11:00.204Z,25.14
2017-08-30T02:12:00.245Z,25.18
2017-08-30T02:13:53.740Z,25.21
2017-08-30T02:14:53.756Z,25.20
2017-08-30T02:16:48.220Z,25.30
2017-08-30T02:17:48.261Z,25.30
2017-08-30T02:19:42.777Z,25.33
2017-08-30T02:20:42.765Z,25.28
2017-08-30T02:22:36.229Z,25.30
2017-08-30T02:23:36.269Z,25.25
2017-08-30T02:25:30.772Z,25.24
2017-08-30T02:26:30.781Z,25.24
2017-08-30T02:28:25.253Z,25.21
2017-08-30T02:29:25.277Z,25.21
2017-08-30T02:31:18.765Z,25.21
2017-08-30T02:32:18.789Z,25.18
2017-08-30T02:34:13.278Z,25.24
2017-08-30T02:35:13.294Z,25.21
2017-08-30T02:37:07.789Z,25.20
2017-08-30T02:38:07.797Z,25.24
2017-08-30T02:40:02.285Z,25.25
2017-08-30T02:41:02.302Z,25.21
2017-08-30T02:42:56.773Z,25.18
2017-08-30T02:43:56.814Z,25.15
2017-08-30T02:45:51.310Z,25.13
2017-08-30T02:46:51.318Z,25.14
2017-08-30T02:48:45.782Z,25.13
2017-08-30T02:49:45.830Z,25.03
2017-08-30T02:51:40.374Z,25.08
2017-08-30T02:52:40.346Z,25.09
2017-08-30T02:54:34.807Z,24.99
2017-08-30T02:55:34.847Z,25.05
2017-08-30T02:57:28.326Z,24.95
2017-08-30T02:58:28.351Z,24.90
2017-08-30T03:00:22.814Z,24.81
2017-08-30T03:01:22.846Z,24.81
2017-08-30T03:03:17.350Z,24.87
2017-08-30T03:04:17.358Z,24.80
2017-08-30T03:06:11.823Z,24.77
2017-08-30T03:07:11.863Z,24.77
2017-08-30T03:09:06.358Z,24.68
2017-08-30T03:10:06.375Z,24.68
2017-08-30T03:12:00.855Z,24.60
2017-08-30T03:13:00.887Z,24.61
2017-08-30T03:14:55.342Z,24.60
2017-08-30T03:15:55.383Z,24.61
2017-08-30T03:17:49.863Z,24.57
2017-08-30T03:18:49.895Z,24.53
2017-08-30T03:20:44.359Z,24.47
2017-08-30T03:21:44.399Z,24.49
2017-08-30T03:23:38.888Z,24.60
2017-08-30T03:24:38.917Z,24.50
2017-08-30T03:26:33.359Z,24.43
2017-08-30T03:27:33.407Z,24.52
2017-08-30T03:29:27.872Z,24.52
2017-08-30T03:30:27.897Z,24.46
2017-08-30T03:32:22.380Z,24.47
2017-08-30T03:33:22.408Z,24.42
2017-08-30T03:35:16.856Z,24.43
2017-08-30T03:36:16.904Z,24.32
2017-08-30T03:38:10.440Z,24.35
2017-08-30T03:39:10.408Z,24.27
2017-08-30T03:41:04.879Z,24.27
2017-08-30T03:42:04.928Z,24.28
2017-08-30T03:43:59.417Z,24.22
2017-08-30T03:44:59.440Z,24.32
2017-08-30T03:46:53.897Z,24.28
2017-08-30T03:47:53.936Z,24.27
2017-08-30T03:49:48.428Z,24.18
2017-08-30T03:50:48.432Z,24.15
2017-08-30T03:52:42.906Z,24.13
2017-08-30T03:53:42.945Z,24.20
2017-08-30T03:55:37.425Z,24.24
2017-08-30T03:56:37.449Z,24.22
2017-08-30T03:58:31.937Z,24.18
2017-08-30T03:59:32.080Z,24.18
2017-08-30T04:01:26.441Z,24.16
2017-08-30T04:02:26.457Z,24.16
2017-08-30T04:04:19.921Z,24.16
2017-08-30T04:05:19.961Z,24.16
2017-08-30T04:07:12.961Z,24.12
2017-08-30T04:08:12.985Z,24.12
2017-08-30T04:10:07.465Z,24.18
2017-08-30T04:11:07.481Z,24.21
2017-08-30T04:13:01.969Z,24.09
2017-08-30T04:14:01.994Z,24.05
2017-08-30T04:15:56.473Z,23.91
2017-08-30T04:16:56.489Z,23.87
2017-08-30T04:18:49.962Z,23.95
2017-08-30T04:19:49.985Z,23.93
2017-08-30T04:21:44.465Z,23.90
2017-08-30T04:22:44.497Z,24.02
2017-08-30T04:24:37.962Z,23.90
2017-08-30T04:25:38.010Z,23.90
2017-08-30T04:27:32.498Z,23.90
2017-08-30T04:28:32.514Z,23.94
2017-08-30T04:30:25.970Z,23.93
2017-08-30T04:31:26.017Z,23.94
2017-08-30T04:33:19.489Z,23.97
2017-08-30T04:34:19.506Z,23.87
2017-08-30T04:36:13.018Z,24.00
2017-08-30T04:37:13.042Z,23.97
2017-08-30T04:39:07.514Z,23.85
2017-08-30T04:40:07.530Z,23.90
2017-08-30T04:42:01.042Z,23.95
2017-08-30T04:43:01.043Z,23.98
2017-08-30T04:44:54.507Z,24.05
2017-08-30T04:45:54.547Z,24.03
2017-08-30T04:47:48.027Z,23.94
2017-08-30T04:48:48.043Z,23.97
2017-08-30T04:50:41.531Z,23.97
2017-08-30T04:51:41.547Z,23.93
2017-08-30T04:53:36.027Z,23.94
2017-08-30T04:54:36.043Z,23.97
2017-08-30T04:56:30.507Z,23.97
2017-08-30T04:57:30.587Z,23.93
2017-08-30T04:59:25.044Z,23.94
2017-08-30T05:00:25.043Z,23.88
2017-08-30T05:02:19.507Z,23.94
2017-08-30T05:03:19.555Z,23.91
2017-08-30T05:05:14.059Z,23.85
2017-08-30T05:06:14.059Z,23.91
2017-08-30T05:08:08.515Z,23.87
2017-08-30T05:09:08.564Z,23.90
2017-08-30T05:11:03.119Z,23.91
2017-08-30T05:12:03.068Z,23.87
2017-08-30T05:13:57.524Z,23.90
2017-08-30T05:14:57.588Z,23.93
2017-08-30T05:16:51.086Z,23.87
2017-08-30T05:17:51.123Z,23.93
2017-08-30T05:19:45.548Z,23.95
2017-08-30T05:20:45.626Z,23.97
2017-08-30T05:22:39.172Z,23.97
2017-08-30T05:23:39.212Z,23.80
2017-08-30T05:25:33.187Z,23.90
2017-08-30T05:26:33.209Z,23.88
2017-08-30T05:28:26.258Z,23.95
2017-08-30T05:29:26.267Z,23.95
2017-08-30T05:31:20.730Z,23.95
2017-08-30T05:32:20.762Z,23.91
2017-08-30T05:34:14.210Z,23.83
2017-08-30T05:35:14.250Z,23.97
2017-08-30T05:37:07.747Z,23.97
2017-08-30T05:38:07.765Z,23.97
2017-08-30T05:40:02.242Z,23.93
2017-08-30T05:41:02.267Z,23.94
2017-08-30T05:42:55.722Z,24.00
2017-08-30T05:43:55.762Z,23.94
2017-08-30T05:45:50.282Z,23.95
2017-08-30T05:46:50.259Z,23.93
2017-08-30T05:48:44.771Z,23.95
2017-08-30T05:49:44.787Z,23.85
2017-08-30T05:51:39.235Z,24.02
2017-08-30T05:52:39.292Z,23.95
2017-08-30T05:54:33.764Z,23.88
2017-08-30T05:55:33.787Z,23.85
2017-08-30T05:57:28.275Z,23.80
2017-08-30T05:58:28.291Z,23.91
2017-08-30T06:00:22.756Z,23.84
2017-08-30T06:01:22.796Z,23.84
2017-08-30T06:03:17.291Z,23.80
2017-08-30T06:04:17.308Z,23.88
2017-08-30T06:06:10.851Z,23.87
2017-08-30T06:07:10.851Z,23.87
2017-08-30T06:09:05.284Z,23.83
2017-08-30T06:10:05.324Z,23.87
2017-08-30T06:11:59.820Z,23.93
2017-08-30T06:12:59.836Z,23.91
2017-08-30T06:14:54.300Z,23.98
2017-08-30T06:15:54.340Z,23.97
2017-08-30T06:17:48.830Z,24.02
2017-08-30T06:18:48.845Z,24.06
2017-08-30T06:20:43.300Z,24.13
2017-08-30T06:21:43.348Z,24.15
2017-08-30T06:23:37.845Z,24.20
2017-08-30T06:24:37.861Z,24.16
2017-08-30T06:26:32.309Z,24.25
2017-08-30T06:27:32.349Z,24.24
2017-08-30T06:29:26.853Z,24.25
2017-08-30T06:30:26.861Z,24.32
2017-08-30T06:32:21.325Z,24.37
2017-08-30T06:33:21.373Z,24.42
2017-08-30T06:35:14.837Z,24.39
2017-08-30T06:36:14.869Z,24.39
2017-08-30T06:38:09.333Z,24.45
2017-08-30T06:39:09.373Z,24.37
2017-08-30T06:41:02.870Z,24.31
2017-08-30T06:42:02.886Z,24.40
2017-08-30T06:43:57.359Z,24.39
2017-08-30T06:44:57.398Z,24.49
2017-08-30T06:46:50.910Z,24.49
2017-08-30T06:47:50.901Z,24.45
2017-08-30T06:49:45.374Z,24.45
2017-08-30T06:50:45.422Z,24.49
2017-08-30T06:52:39.901Z,24.43
2017-08-30T06:53:39.925Z,24.47
2017-08-30T06:55:34.406Z,24.39
2017-08-30T06:56:34.422Z,24.47
2017-08-30T06:58:27.398Z,24.40
2017-08-30T06:59:27.438Z,24.43
2017-08-30T07:01:20.950Z,24.50
2017-08-30T07:02:20.966Z,24.43
2017-08-30T07:04:15.430Z,24.52
2017-08-30T07:05:15.470Z,24.47
2017-08-30T07:07:09.974Z,24.43
2017-08-30T07:08:09.991Z,24.50
2017-08-30T07:10:04.447Z,24.45
2017-08-30T07:11:04.503Z,24.43
2017-08-30T07:12:58.987Z,24.43
2017-08-30T07:13:59.007Z,24.43
2017-08-30T07:15:52.511Z,24.52
2017-08-30T07:16:52.527Z,24.43
2017-08-30T07:18:47.022Z,24.37
2017-08-30T07:19:47.047Z,24.31
2017-08-30T07:21:41.543Z,24.35
2017-08-30T07:22:41.543Z,24.47
2017-08-30T07:24:35.039Z,24.34
2017-08-30T07:25:35.047Z,24.42
2017-08-30T07:27:29.528Z,24.46
2017-08-30T07:28:29.561Z,24.49
2017-08-30T07:30:24.048Z,24.45
2017-08-30T07:31:24.063Z,24.47
2017-08-30T07:33:18.576Z,24.46
2017-08-30T07:34:18.576Z,24.43
2017-08-30T07:36:14.040Z,24.57
2017-08-30T07:37:14.087Z,24.57
2017-08-30T07:39:08.560Z,24.42
2017-08-30T07:40:08.584Z,24.37
2017-08-30T07:42:03.057Z,24.39
2017-08-30T07:43:03.108Z,24.45
2017-08-30T07:44:57.585Z,24.58
2017-08-30T07:45:57.624Z,24.40
2017-08-30T07:47:52.094Z,24.43
2017-08-30T07:48:52.120Z,24.49
2017-08-30T07:50:46.608Z,24.61
2017-08-30T07:51:55.281Z,24.65
2017-08-30T07:53:41.120Z,24.53
2017-08-30T07:54:41.145Z,24.58
2017-08-30T07:56:35.640Z,24.61
2017-08-30T07:57:35.681Z,24.57
2017-08-30T07:59:30.184Z,24.61
2017-08-30T08:00:30.177Z,24.47
2017-08-30T08:02:24.665Z,24.37
2017-08-30T08:03:24.689Z,24.31
2017-08-30T08:05:19.201Z,24.28
2017-08-30T08:06:19.193Z,24.21
2017-08-30T08:08:13.662Z,24.10
2017-08-30T08:09:13.697Z,24.02
2017-08-30T08:11:08.196Z,23.98
2017-08-30T08:12:08.201Z,23.94
2017-08-30T08:14:01.698Z,24.06
2017-08-30T08:15:01.727Z,24.00
2017-08-30T08:16:57.185Z,24.12
2017-08-30T08:17:57.225Z,24.15
2017-08-30T08:19:51.705Z,24.10
2017-08-30T08:20:51.738Z,24.12
2017-08-30T08:22:46.226Z,24.13
2017-08-30T08:23:46.241Z,24.12
2017-08-30T08:25:40.706Z,24.15
2017-08-30T08:26:40.746Z,24.15
2017-08-30T08:28:35.241Z,24.15
2017-08-30T08:29:35.250Z,24.00
2017-08-30T08:31:29.714Z,24.08
2017-08-30T08:32:29.762Z,24.13
2017-08-30T08:34:24.243Z,24.13
2017-08-30T08:35:24.258Z,24.15
2017-08-30T08:37:18.714Z,24.12
2017-08-30T08:38:18.755Z,24.03
2017-08-30T08:40:13.236Z,23.95
2017-08-30T08:41:13.266Z,23.91
2017-08-30T08:43:07.730Z,23.84
2017-08-30T08:44:07.770Z,23.80
2017-08-30T08:46:02.298Z,23.88
2017-08-30T08:47:02.266Z,23.84
2017-08-30T08:48:56.740Z,23.95
2017-08-30T08:49:56.779Z,23.91
2017-08-30T08:51:51.259Z,23.88
2017-08-30T08:52:51.283Z,23.83
2017-08-30T08:54:45.741Z,23.72
2017-08-30T08:55:45.788Z,23.78
2017-08-30T08:57:40.267Z,23.68
2017-08-30T08:58:40.291Z,23.54
2017-08-30T09:00:34.763Z,23.54
2017-08-30T09:01:34.819Z,23.48
2017-08-30T09:03:29.299Z,23.61
2017-08-30T09:04:29.307Z,23.61
2017-08-30T09:06:23.772Z,23.63
2017-08-30T09:07:23.836Z,23.61
2017-08-30T09:09:17.308Z,23.50
2017-08-30T09:10:17.316Z,23.47
2017-08-30T09:12:11.779Z,23.53
2017-08-30T09:13:11.843Z,23.46
2017-08-30T09:15:06.315Z,23.48
2017-08-30T09:16:06.324Z,23.54
2017-08-30T09:17:59.796Z,23.25
2017-08-30T09:18:59.844Z,23.17
2017-08-30T09:20:54.316Z,23.17
2017-08-30T09:21:54.348Z,23.17
2017-08-30T09:23:48.853Z,23.25
2017-08-30T09:24:48.844Z,23.36
2017-08-30T09:26:42.348Z,23.40
2017-08-30T09:27:42.365Z,23.22
2017-08-30T09:29:36.830Z,23.22
2017-08-30T09:30:36.878Z,23.25
2017-08-30T09:32:31.389Z,23.19
2017-08-30T09:33:31.373Z,23.22
2017-08-30T09:35:25.845Z,23.16
2017-08-30T09:36:25.893Z,23.23
2017-08-30T09:38:19.389Z,23.16
2017-08-30T09:39:19.414Z,23.25
2017-08-30T09:41:13.885Z,23.33
2017-08-30T09:42:13.918Z,23.31
2017-08-30T09:44:08.407Z,23.33
2017-08-30T09:45:08.414Z,23.35
2017-08-30T09:47:02.894Z,23.33
2017-08-30T09:48:02.927Z,23.39
2017-08-30T09:49:57.417Z,23.35
2017-08-30T09:50:57.454Z,23.39
2017-08-30T09:52:50.902Z,23.46
2017-08-30T09:53:50.942Z,23.54
2017-08-30T09:55:45.440Z,23.48
2017-08-30T09:56:45.447Z,23.54
2017-08-30T09:58:39.911Z,23.78
2017-08-30T09:59:39.943Z,23.87
2017-08-30T10:01:34.447Z,24.15
2017-08-30T10:02:34.463Z,24.18
2017-08-30T10:04:27.943Z,24.55
2017-08-30T10:05:27.967Z,24.69
2017-08-30T10:07:22.479Z,24.88
2017-08-30T10:08:22.471Z,25.09
2017-08-30T10:10:16.942Z,25.58
2017-08-30T10:11:17.023Z,25.72
2017-08-30T10:13:11.511Z,25.92
2017-08-30T10:14:11.495Z,26.07
2017-08-30T10:16:04.967Z,26.60
2017-08-30T10:17:05.007Z,26.88
2017-08-30T10:18:59.495Z,27.40
2017-08-30T10:19:59.520Z,27.66
2017-08-30T10:21:54.023Z,28.30
2017-08-30T10:22:54.039Z,28.74
2017-08-30T10:24:48.504Z,29.27
2017-08-30T10:25:48.552Z,29.43
2017-08-30T10:27:43.080Z,29.53
2017-08-30T10:28:43.064Z,29.64
2017-08-30T10:30:37.544Z,29.78
2017-08-30T10:31:37.592Z,29.92
2017-08-30T10:33:32.152Z,30.08
2017-08-30T10:34:32.181Z,30.10
2017-08-30T10:36:26.576Z,30.35
2017-08-30T10:37:26.640Z,30.62
2017-08-30T10:39:21.120Z,30.47
2017-08-30T10:40:21.163Z,30.42
2017-08-30T10:42:14.646Z,30.64
2017-08-30T10:43:14.686Z,30.70
2017-08-30T10:45:10.176Z,30.51
2017-08-30T10:46:10.232Z,30.57
2017-08-30T10:48:04.688Z,30.70
2017-08-30T10:49:04.705Z,30.61
2017-08-30T10:50:59.177Z,30.58
2017-08-30T10:51:59.217Z,30.58
2017-08-30T10:53:53.721Z,30.80
2017-08-30T10:54:53.737Z,30.69
2017-08-30T10:56:48.209Z,30.80
2017-08-30T10:57:48.249Z,30.80
2017-08-30T10:59:41.742Z,31.12
2017-08-30T11:00:41.759Z,31.23
2017-08-30T11:02:36.257Z,31.78
2017-08-30T11:03:36.274Z,32.01
2017-08-30T11:05:30.745Z,32.87
2017-08-30T11:06:30.794Z,32.48
2017-08-30T11:08:25.298Z,32.28
2017-08-30T11:09:25.305Z,32.44
2017-08-30T11:11:19.825Z,32.57
2017-08-30T11:12:19.831Z,32.33
2017-08-30T11:14:14.312Z,31.56
2017-08-30T11:15:14.336Z,31.21
2017-08-30T11:17:08.816Z,30.88
2017-08-30T11:18:08.865Z,30.77
2017-08-30T11:20:03.368Z,30.91
2017-08-30T11:21:03.536Z,30.94
2017-08-30T11:22:57.888Z,30.98
2017-08-30T11:23:57.912Z,30.97
2017-08-30T11:25:52.601Z,31.16
2017-08-30T11:26:52.504Z,31.51
2017-08-30T11:28:46.968Z,32.14
2017-08-30T11:29:46.947Z,32.41
2017-08-30T11:31:41.456Z,32.89
2017-08-30T11:32:41.465Z,33.22
2017-08-30T11:34:35.952Z,33.54
2017-08-30T11:35:35.985Z,33.66
2017-08-30T11:37:30.489Z,33.65
2017-08-30T11:38:30.505Z,33.90
2017-08-30T11:40:24.969Z,34.44
2017-08-30T11:41:25.025Z,34.30
2017-08-30T11:43:19.512Z,34.35
2017-08-30T11:44:19.577Z,34.42
2017-08-30T11:46:14.044Z,34.64
2017-08-30T11:47:14.090Z,34.40
2017-08-30T11:49:10.723Z,34.50
2017-08-30T11:50:08.634Z,34.61
2017-08-30T11:52:03.075Z,34.12
2017-08-30T11:53:03.130Z,33.91
2017-08-30T11:55:10.290Z,33.47
2017-08-30T11:56:11.531Z,33.37
2017-08-30T11:58:03.548Z,33.18
2017-08-30T11:59:03.587Z,33.04
2017-08-30T12:00:58.107Z,33.44
2017-08-30T12:01:58.107Z,33.86
2017-08-30T12:03:51.667Z,33.91
2017-08-30T12:04:51.770Z,33.45
2017-08-30T12:07:23.636Z,33.11
2017-08-30T12:08:21.179Z,33.04
2017-08-30T12:10:18.019Z,32.60
2017-08-30T12:11:17.316Z,32.59
2017-08-30T12:13:09.067Z,32.43
2017-08-30T12:14:10.380Z,32.29
2017-08-30T12:16:17.659Z,32.19
2017-08-30T12:17:02.389Z,32.00
2017-08-30T12:18:57.276Z,31.73
2017-08-30T12:19:58.716Z,31.63
2017-08-30T12:22:37.787Z,31.25
2017-08-30T12:23:36.587Z,31.23
2017-08-30T12:25:29.115Z,30.94
2017-08-30T12:26:29.147Z,30.80
2017-08-30T12:28:52.804Z,30.35
2017-08-30T12:29:22.847Z,30.54
2017-08-30T12:31:18.235Z,30.98
2017-08-30T12:32:18.259Z,31.17
2017-08-30T12:34:13.027Z,32.15
2017-08-30T12:35:12.523Z,32.78
2017-08-30T12:37:17.636Z,33.00
2017-08-30T12:38:17.683Z,33.34
2017-08-30T12:40:11.204Z,33.60
2017-08-30T12:41:11.220Z,33.65
2017-08-30T12:43:04.724Z,33.21
2017-08-30T12:44:04.732Z,32.96
2017-08-30T12:46:01.236Z,33.00
2017-08-30T12:47:00.524Z,33.01
2017-08-30T12:48:54.964Z,33.09
2017-08-30T12:49:55.068Z,33.35
2017-08-30T12:51:49.516Z,33.49
2017-08-30T12:52:49.524Z,33.21
2017-08-30T12:54:44.044Z,33.14
2017-08-30T12:55:44.060Z,33.00
2017-08-30T12:57:37.516Z,32.29
2017-08-30T12:58:37.569Z,32.00
2017-08-30T13:00:32.060Z,31.95
2017-08-30T13:01:32.076Z,31.92
2017-08-30T13:03:26.573Z,32.10
2017-08-30T13:04:26.637Z,32.11
2017-08-30T13:06:20.141Z,32.14
2017-08-30T13:07:20.165Z,32.19
2017-08-30T13:09:14.652Z,32.11
2017-08-30T13:10:14.685Z,31.99
2017-08-30T13:12:09.189Z,31.96
2017-08-30T13:13:09.213Z,31.93
2017-08-30T13:15:03.685Z,31.76
2017-08-30T13:16:03.725Z,31.80
2017-08-30T13:17:57.229Z,31.92
2017-08-30T13:18:57.253Z,32.19
2017-08-30T13:20:51.725Z,32.38
2017-08-30T13:21:51.765Z,32.37
2017-08-30T13:23:46.269Z,32.23
2017-08-30T13:24:46.286Z,31.92
2017-08-30T13:26:40.757Z,31.91
2017-08-30T13:27:40.799Z,31.46
2017-08-30T13:29:35.305Z,31.47
2017-08-30T13:30:35.325Z,31.51
2017-08-30T13:32:29.813Z,31.61
2017-08-30T13:33:29.861Z,31.57
2017-08-30T13:35:24.390Z,31.54
2017-08-30T13:36:24.397Z,31.48
2017-08-30T13:38:18.870Z,31.63
2017-08-30T13:39:18.918Z,31.54
2017-08-30T13:41:13.414Z,31.65
2017-08-30T13:42:13.438Z,31.61
2017-08-30T13:44:07.894Z,31.57
2017-08-30T13:45:07.942Z,31.51
2017-08-30T13:47:02.438Z,31.36
2017-08-30T13:48:02.466Z,31.19
2017-08-30T13:49:56.966Z,30.99
2017-08-30T13:50:56.982Z,31.04
2017-08-30T13:52:50.478Z,30.99
2017-08-30T13:53:50.510Z,30.86
2017-08-30T13:55:45.007Z,30.65
2017-08-30T13:56:45.036Z,30.61
2017-08-30T13:58:39.503Z,30.64
2017-08-30T13:59:39.542Z,30.62
2017-08-30T14:01:33.095Z,30.58
2017-08-30T14:02:33.127Z,30.62
2017-08-30T14:04:27.567Z,30.79
2017-08-30T14:05:27.615Z,30.69
2017-08-30T14:07:22.138Z,30.75
2017-08-30T14:08:22.127Z,30.72
2017-08-30T14:10:16.607Z,30.35
2017-08-30T14:11:16.655Z,30.34
2017-08-30T14:13:11.145Z,30.24
2017-08-30T14:14:11.159Z,30.35
2017-08-30T14:16:05.632Z,30.19
2017-08-30T14:17:05.687Z,30.07
2017-08-30T14:19:00.176Z,30.27
2017-08-30T14:20:00.192Z,30.26
2017-08-30T14:21:54.664Z,30.20
2017-08-30T14:22:54.712Z,30.16
2017-08-30T14:24:49.208Z,30.16
2017-08-30T14:25:49.232Z,30.26
2017-08-30T14:27:43.698Z,30.05
2017-08-30T14:28:43.752Z,29.92
2017-08-30T14:30:38.256Z,29.83
2017-08-30T14:31:38.272Z,29.86
2017-08-30T14:33:32.744Z,29.76
2017-08-30T14:34:32.792Z,29.74
2017-08-30T14:36:27.287Z,29.64
2017-08-30T14:37:27.320Z,29.65
2017-08-30T14:39:21.808Z,29.63
2017-08-30T14:40:21.850Z,29.64
2017-08-30T14:42:16.337Z,29.60
2017-08-30T14:43:16.337Z,29.53
2017-08-30T14:45:10.837Z,29.53
2017-08-30T14:46:10.881Z,29.55
2017-08-30T14:48:05.385Z,29.39
2017-08-30T14:49:05.409Z,29.41
2017-08-30T14:51:01.761Z,29.39
2017-08-30T14:52:01.793Z,29.45
2017-08-30T14:53:56.265Z,29.49
2017-08-30T14:54:56.257Z,29.51
2017-08-30T14:56:50.729Z,29.52
2017-08-30T14:57:50.794Z,29.49
2017-08-30T14:59:45.328Z,29.37
2017-08-30T15:00:45.321Z,29.51
2017-08-30T15:02:39.873Z,29.51
2017-08-30T15:03:40.065Z,29.55
2017-08-30T15:05:34.332Z,29.55
2017-08-30T15:06:42.994Z,29.70
2017-08-30T15:08:28.865Z,29.83
2017-08-30T15:09:28.890Z,29.85
2017-08-30T15:11:22.643Z,29.70
2017-08-30T15:12:22.930Z,29.71
2017-08-30T15:14:17.145Z,29.70
2017-08-30T15:15:17.219Z,29.71
2017-08-30T15:17:11.795Z,29.71
2017-08-30T15:18:11.394Z,29.78
2017-08-30T15:20:05.850Z,29.52
2017-08-30T15:21:05.874Z,29.51
2017-08-30T15:23:00.354Z,29.61
2017-08-30T15:24:00.378Z,29.49
2017-08-30T15:25:54.922Z,29.51
2017-08-30T15:26:54.938Z,29.51
2017-08-30T15:28:49.459Z,29.39
2017-08-30T15:29:49.470Z,29.37
2017-08-30T15:31:43.995Z,29.41
2017-08-30T15:32:43.972Z,29.42
2017-08-30T15:34:38.291Z,29.30
2017-08-30T15:35:38.514Z,29.23
2017-08-30T15:37:31.404Z,29.16
2017-08-30T15:38:31.395Z,29.11
2017-08-30T15:40:28.243Z,29.15
2017-08-30T15:41:27.051Z,29.15
2017-08-30T15:43:19.748Z,28.90
2017-08-30T15:44:19.690Z,28.83
2017-08-30T15:46:14.156Z,28.80
2017-08-30T15:47:14.195Z,28.83
2017-08-30T15:49:08.686Z,28.74
2017-08-30T15:50:08.723Z,28.66
2017-08-30T15:52:02.170Z,28.67
2017-08-30T15:53:02.221Z,28.76
2017-08-30T15:54:56.757Z,28.71
2017-08-30T15:55:56.766Z,28.73
2017-08-30T15:57:51.570Z,28.66
2017-08-30T15:58:51.294Z,28.71
2017-08-30T16:00:44.771Z,28.56
2017-08-30T16:01:44.843Z,28.61
2017-08-30T16:03:39.252Z,28.62
2017-08-30T16:04:39.305Z,28.74
2017-08-30T16:06:33.833Z,28.74
2017-08-30T16:07:33.824Z,28.85
2017-08-30T16:09:28.288Z,28.93
2017-08-30T16:10:28.337Z,28.92
2017-08-30T16:12:23.666Z,29.02
2017-08-30T16:13:23.683Z,28.96
2017-08-30T16:15:18.193Z,29.14
2017-08-30T16:16:18.209Z,29.19
2017-08-30T16:18:12.697Z,29.11
2017-08-30T16:19:12.721Z,29.15
2017-08-30T16:21:07.225Z,29.00
2017-08-30T16:22:07.273Z,29.04
2017-08-30T16:24:00.745Z,28.93
2017-08-30T16:25:00.769Z,28.96
2017-08-30T16:26:55.297Z,28.77
2017-08-30T16:27:55.338Z,28.80
2017-08-30T16:29:49.834Z,28.83
2017-08-30T16:30:49.850Z,28.70
2017-08-30T16:32:44.346Z,28.68
2017-08-30T16:33:44.368Z,28.66
2017-08-30T16:35:38.850Z,28.52
2017-08-30T16:36:38.889Z,28.43
2017-08-30T16:38:32.497Z,28.46
2017-08-30T16:39:32.546Z,28.49
2017-08-30T16:41:27.034Z,28.52
2017-08-30T16:42:26.914Z,28.51
2017-08-30T16:44:21.394Z,28.51
2017-08-30T16:45:21.402Z,28.54
2017-08-30T16:47:15.986Z,28.41
2017-08-30T16:48:16.126Z,28.41
2017-08-30T16:50:10.876Z,28.36
2017-08-30T16:51:10.740Z,28.33
2017-08-30T16:53:05.038Z,28.31
2017-08-30T16:54:05.428Z,28.22
2017-08-30T16:56:03.540Z,28.19
2017-08-30T16:58:27.532Z,28.04
2017-08-30T16:59:16.892Z,28.03
2017-08-30T17:01:10.884Z,27.92
2017-08-30T17:02:11.404Z,27.90
2017-08-30T17:04:04.877Z,27.75
2017-08-30T17:05:04.893Z,27.67
2017-08-30T17:06:59.389Z,27.65
2017-08-30T17:07:59.397Z,27.66
2017-08-30T17:09:53.983Z,27.72
2017-08-30T17:10:53.962Z,27.75
2017-08-30T17:12:48.517Z,27.60
2017-08-30T17:13:48.537Z,27.55
2017-08-30T17:15:43.179Z,27.46
2017-08-30T17:16:42.986Z,27.44
2017-08-30T17:18:37.731Z,27.39
2017-08-30T17:19:37.739Z,27.34
2017-08-30T17:21:32.241Z,27.40
2017-08-30T17:22:32.323Z,27.32
2017-08-30T17:24:25.731Z,27.31
2017-08-30T17:25:25.779Z,27.29
2017-08-30T17:27:20.274Z,27.19
2017-08-30T17:28:20.306Z,27.12
2017-08-30T17:30:13.769Z,27.13
2017-08-30T17:31:13.802Z,27.13
2017-08-30T17:33:08.314Z,27.22
2017-08-30T17:34:08.314Z,27.18
2017-08-30T17:36:02.778Z,27.12
2017-08-30T17:37:03.338Z,27.14
2017-08-30T17:38:56.618Z,27.06
2017-08-30T17:39:58.130Z,27.07
2017-08-30T17:41:05.147Z,27.02
2017-08-30T17:42:54.118Z,26.97
2017-08-30T17:43:53.539Z,27.02
2017-08-30T17:45:47.307Z,27.04
2017-08-30T17:46:45.707Z,27.04
2017-08-30T17:48:40.313Z,26.92
2017-08-30T17:49:41.405Z,26.88
2017-08-30T17:51:37.530Z,26.85
2017-08-30T17:52:36.395Z,26.88
2017-08-30T17:54:30.995Z,26.89
2017-08-30T17:55:31.032Z,26.84
2017-08-30T17:57:24.640Z,26.82
2017-08-30T17:58:24.648Z,26.70
2017-08-30T18:00:17.865Z,26.80
2017-08-30T18:01:17.713Z,26.75
2017-08-30T18:03:13.984Z,26.77
2017-08-30T18:04:13.888Z,26.76
2017-08-30T18:06:08.361Z,26.70
2017-08-30T18:07:08.569Z,26.58
2017-08-30T18:09:01.993Z,26.58
2017-08-30T18:10:02.361Z,26.58
2017-08-30T18:11:55.582Z,26.55
2017-08-30T18:12:55.550Z,26.58
2017-08-30T18:14:49.356Z,26.54
2017-08-30T18:15:49.357Z,26.50
2017-08-30T18:17:43.076Z,26.44
2017-08-30T18:18:43.092Z,26.47
2017-08-30T18:20:39.421Z,26.45
2017-08-30T18:21:41.188Z,26.47
2017-08-30T18:23:33.781Z,26.33
2017-08-30T18:24:34.461Z,26.45
2017-08-30T18:26:26.864Z,26.37
2017-08-30T18:27:26.886Z,26.28
2017-08-30T18:29:21.366Z,26.18
2017-08-30T18:30:21.967Z,26.10
2017-08-30T18:32:17.358Z,26.12
2017-08-30T18:33:17.367Z,26.21
2017-08-30T18:35:11.478Z,26.26
2017-08-30T18:36:11.558Z,26.18
2017-08-30T18:38:06.767Z,26.23
2017-08-30T18:39:08.342Z,26.23
2017-08-30T18:41:01.167Z,26.25
2017-08-30T18:42:01.201Z,26.23
2017-08-30T18:43:55.687Z,26.21